Remerton, Georgia
Current Conditions -  °F | °C
As of 4:53 PM on Thursday 23 Oct 2014 (Local Time) from KVLD Reporting Station
Clear Clear  
Wind Chill: 74°   Ceiling: Unl
Heat Index: 74°   Visibility: 10mi
Dew Point: 36°   Wind: 5mph
Humidity: 25%   Direction: 40°NE
Pressure: 29.99"   Gusts: NA
Location:  30.7579°N, 83.3062°W
Report Text: KVLD 232053Z 04004KT 10SM CLR 23/02 A2999 RMK AO2 SLP164 T02330022 56014
Loading
Personal Weather Stations






























Interactive Weather Map
Tropical Storm Tracking
New forecast layout! Learn more

10-Day Weather Forecast

Advertisements
Track Severe Weather on mobile